Terminal Aerodrome Forecast
Issued by NWS

Home | Current Version | Previous Version | Text Only | Print | Product List | Glossary On
Versions: 1 2 3 4 5 6 7 8 9 10 11 12 13 14 15 16 17 18
815
FTUS46 KLOX 090528
TAFOXR
TAF
KOXR 090528Z 0906/1006 VRB03KT P6SM SKC
     FM091300 07012G20KT P6SM SKC
     FM091800 07010KT P6SM SKC
     FM092200 30006KT P6SM FEW010
     FM100300 VRB03KT P6SM SCT250=

USA.gov is the U.S. government's official web portal to all federal, state and local government web resources and services.